Time,TemperatureF,DewpointF,PressureIn,WindDirection,WindDirectionDegrees,WindSpeedMPH,WindSpeedGustMPH,Humidity,HourlyPrecipIn,Conditions,Clouds,dailyrainin,SolarRadiationWatts/m^2,SoftwareType,DateUTC
2013-03-21 00:03:00,35.0,21.0,-100.00,North,-999,-999.0,-999.0,57,0.00,,,0.00,0.000000,,2013-03-21 04:03:00,
2013-03-21 00:10:00,33.0,26.0,-100.00,North,-999,-999.0,-999.0,74,0.00,,,0.00,0.000000,,2013-03-21 04:10:00,
2013-03-21 00:43:00,33.0,26.0,-100.00,North,-999,-999.0,-999.0,74,0.00,,,0.00,0.000000,,2013-03-21 04:43:00,
2013-03-21 00:53:00,33.0,26.0,-100.00,North,-999,-999.0,-999.0,74,0.00,,,0.00,0.000000,,2013-03-21 04:53:00,
2013-03-21 01:03:00,33.0,26.0,-100.00,North,-999,-999.0,-999.0,74,0.00,,,0.00,0.000000,,2013-03-21 05:03:00,
2013-03-21 01:10:00,31.0,17.0,-100.00,North,-999,-999.0,-999.0,56,0.00,,,0.00,0.000000,,2013-03-21 05:10:00,
2013-03-21 01:33:00,31.0,17.0,-100.00,North,-999,-999.0,-999.0,56,0.00,,,0.00,0.000000,,2013-03-21 05:33:00,
2013-03-21 01:44:00,31.0,17.0,-100.00,North,-999,-999.0,-999.0,56,0.00,,,0.00,0.000000,,2013-03-21 05:44:00,
2013-03-21 01:52:00,31.0,17.0,-100.00,North,-999,-999.0,-999.0,56,0.00,,,0.00,0.000000,,2013-03-21 05:52:00,
2013-03-21 02:03:00,31.0,17.0,-100.00,North,-999,-999.0,-999.0,56,0.00,,,0.00,0.000000,,2013-03-21 06:03:00,
2013-03-21 02:10:00,30.0,10.0,-100.00,North,-999,-999.0,-999.0,42,0.00,,,0.00,0.000000,,2013-03-21 06:10:00,
2013-03-21 02:32:00,30.0,10.0,-100.00,North,-999,-999.0,-999.0,42,0.00,,,0.00,0.000000,,2013-03-21 06:32:00,
2013-03-21 02:42:00,30.0,10.0,-100.00,North,-999,-999.0,-999.0,42,0.00,,,0.00,0.000000,,2013-03-21 06:42:00,
2013-03-21 02:52:00,30.0,10.0,-100.00,North,-999,-999.0,-999.0,42,0.00,,,0.00,0.000000,,2013-03-21 06:52:00,
2013-03-21 03:02:00,30.0,10.0,-100.00,North,-999,-999.0,-999.0,42,0.00,,,0.00,0.000000,,2013-03-21 07:02:00,
2013-03-21 03:10:00,29.0,9.0,-100.00,North,-999,-999.0,-999.0,43,0.00,,,0.00,0.000000,,2013-03-21 07:10:00,
2013-03-21 03:32:00,29.0,9.0,-100.00,North,-999,-999.0,-999.0,43,0.00,,,0.00,0.000000,,2013-03-21 07:32:00,
2013-03-21 03:43:00,29.0,9.0,-100.00,North,-999,-999.0,-999.0,43,0.00,,,0.00,0.000000,,2013-03-21 07:43:00,
2013-03-21 03:53:00,29.0,9.0,-100.00,North,-999,-999.0,-999.0,43,0.00,,,0.00,0.000000,,2013-03-21 07:53:00,
2013-03-21 04:02:00,29.0,9.0,-100.00,North,-999,-999.0,-999.0,43,0.00,,,0.00,0.000000,,2013-03-21 08:02:00,
2013-03-21 04:10:00,27.0,10.0,-100.00,North,-999,-999.0,-999.0,49,0.00,,,0.00,0.000000,,2013-03-21 08:10:00,
2013-03-21 04:43:00,27.0,10.0,-100.00,North,-999,-999.0,-999.0,49,0.00,,,0.00,0.000000,,2013-03-21 08:43:00,
2013-03-21 04:52:00,27.0,10.0,-100.00,North,-999,-999.0,-999.0,49,0.00,,,0.00,0.000000,,2013-03-21 08:52:00,
2013-03-21 05:02:00,27.0,10.0,-100.00,North,-999,-999.0,-999.0,49,0.00,,,0.00,0.000000,,2013-03-21 09:02:00,
2013-03-21 05:10:00,26.0,9.0,-100.00,North,-999,-999.0,-999.0,49,0.00,,,0.00,0.000000,,2013-03-21 09:10:00,
2013-03-21 05:33:00,26.0,9.0,-100.00,North,-999,-999.0,-999.0,49,0.00,,,0.00,0.000000,,2013-03-21 09:33:00,
2013-03-21 05:43:00,26.0,9.0,-100.00,North,-999,-999.0,-999.0,49,0.00,,,0.00,0.000000,,2013-03-21 09:43:00,
2013-03-21 05:53:00,26.0,9.0,-100.00,North,-999,-999.0,-999.0,49,0.00,,,0.00,0.000000,,2013-03-21 09:53:00,
2013-03-21 06:03:00,26.0,9.0,-100.00,North,-999,-999.0,-999.0,49,0.00,,,0.00,0.000000,,2013-03-21 10:03:00,
2013-03-21 06:10:00,25.0,12.0,-100.00,North,-999,-999.0,-999.0,56,0.00,,,0.00,0.000000,,2013-03-21 10:10:00,
2013-03-21 06:43:00,25.0,12.0,-100.00,North,-999,-999.0,-999.0,56,0.00,,,0.00,0.000000,,2013-03-21 10:43:00,
2013-03-21 06:53:00,25.0,12.0,-100.00,North,-999,-999.0,-999.0,56,0.00,,,0.00,0.000000,,2013-03-21 10:53:00,
2013-03-21 07:03:00,25.0,12.0,-100.00,North,-999,-999.0,-999.0,56,0.00,,,0.00,0.000000,,2013-03-21 11:03:00,
2013-03-21 08:10:00,23.0,11.0,-100.00,North,-999,-999.0,-999.0,59,-99.99,,,0.00,0.000000,,2013-03-21 12:10:00,
2013-03-21 08:33:00,23.0,11.0,-100.00,North,-999,-999.0,-999.0,59,-99.99,,,0.00,0.000000,,2013-03-21 12:33:00,
2013-03-21 08:43:00,23.0,11.0,-100.00,North,-999,-999.0,-999.0,59,-99.99,,,0.00,0.000000,,2013-03-21 12:43:00,
2013-03-21 08:53:00,23.0,11.0,-100.00,North,-999,-999.0,-999.0,59,-99.99,,,0.00,0.000000,,2013-03-21 12:53:00,
2013-03-21 09:03:00,23.0,11.0,-100.00,North,-999,-999.0,-999.0,59,-99.99,,,0.00,0.000000,,2013-03-21 13:03:00,
2013-03-21 09:10:00,25.0,9.0,-100.00,North,-999,-999.0,-999.0,50,0.00,,,0.00,0.000000,,2013-03-21 13:10:00,
2013-03-21 09:33:00,25.0,9.0,-100.00,North,-999,-999.0,-999.0,50,0.00,,,0.00,0.000000,,2013-03-21 13:33:00,
2013-03-21 09:43:00,25.0,9.0,-100.00,North,-999,-999.0,-999.0,50,0.00,,,0.00,0.000000,,2013-03-21 13:43:00,
2013-03-21 09:53:00,25.0,9.0,-100.00,North,-999,-999.0,-999.0,50,0.00,,,0.00,0.000000,,2013-03-21 13:53:00,
2013-03-21 10:02:00,25.0,9.0,-100.00,North,-999,-999.0,-999.0,50,0.00,,,0.00,0.000000,,2013-03-21 14:02:00,
2013-03-21 10:10:00,30.0,7.0,-100.00,North,-999,-999.0,-999.0,37,0.00,,,0.00,0.000000,,2013-03-21 14:10:00,
2013-03-21 10:43:00,30.0,7.0,-100.00,North,-999,-999.0,-999.0,37,0.00,,,0.00,0.000000,,2013-03-21 14:43:00,
2013-03-21 10:52:00,30.0,7.0,-100.00,North,-999,-999.0,-999.0,37,0.00,,,0.00,0.000000,,2013-03-21 14:52:00,
2013-03-21 11:04:00,30.0,7.0,-100.00,North,-999,-999.0,-999.0,37,0.00,,,0.00,0.000000,,2013-03-21 15:04:00,
2013-03-21 11:10:00,32.0,6.0,-100.00,North,-999,-999.0,-999.0,32,0.00,,,0.00,0.000000,,2013-03-21 15:10:00,
2013-03-21 11:33:00,32.0,6.0,-100.00,North,-999,-999.0,-999.0,32,0.00,,,0.00,0.000000,,2013-03-21 15:33:00,
2013-03-21 11:43:00,32.0,6.0,-100.00,North,-999,-999.0,-999.0,32,0.00,,,0.00,0.000000,,2013-03-21 15:43:00,
2013-03-21 11:53:00,32.0,6.0,-100.00,North,-999,-999.0,-999.0,32,0.00,,,0.00,0.000000,,2013-03-21 15:53:00,
2013-03-21 12:03:00,32.0,6.0,-100.00,North,-999,-999.0,-999.0,32,0.00,,,0.00,0.000000,,2013-03-21 16:03:00,
2013-03-21 12:10:00,33.0,4.0,-100.00,North,-999,-999.0,-999.0,29,0.00,,,0.00,66.000000,,2013-03-21 16:10:00,
2013-03-21 12:33:00,33.0,4.0,-100.00,North,-999,-999.0,-999.0,29,0.00,,,0.00,66.000000,,2013-03-21 16:33:00,
2013-03-21 12:42:00,33.0,4.0,-100.00,North,-999,-999.0,-999.0,29,0.00,,,0.00,66.000000,,2013-03-21 16:42:00,
2013-03-21 12:53:00,33.0,4.0,-100.00,North,-999,-999.0,-999.0,29,0.00,,,0.00,66.000000,,2013-03-21 16:53:00,
2013-03-21 13:03:00,33.0,4.0,-100.00,North,-999,-999.0,-999.0,29,0.00,,,0.00,66.000000,,2013-03-21 17:03:00,
2013-03-21 13:10:00,37.0,6.0,-100.00,North,-999,-999.0,-999.0,27,0.00,,,0.00,194.000000,,2013-03-21 17:10:00,
2013-03-21 13:33:00,37.0,6.0,-100.00,North,-999,-999.0,-999.0,27,0.00,,,0.00,194.000000,,2013-03-21 17:33:00,
2013-03-21 13:43:00,37.0,6.0,-100.00,North,-999,-999.0,-999.0,27,0.00,,,0.00,194.000000,,2013-03-21 17:43:00,
2013-03-21 13:53:00,37.0,6.0,-100.00,North,-999,-999.0,-999.0,27,0.00,,,0.00,194.000000,,2013-03-21 17:53:00,
2013-03-21 14:02:00,37.0,6.0,-100.00,North,-999,-999.0,-999.0,27,0.00,,,0.00,194.000000,,2013-03-21 18:02:00,
2013-03-21 14:10:00,35.0,5.0,-100.00,North,-999,-999.0,-999.0,28,0.00,,,0.00,245.000000,,2013-03-21 18:10:00,
2013-03-21 14:43:00,35.0,5.0,-100.00,North,-999,-999.0,-999.0,28,0.00,,,0.00,245.000000,,2013-03-21 18:43:00,
2013-03-21 14:52:00,35.0,5.0,-100.00,North,-999,-999.0,-999.0,28,0.00,,,0.00,245.000000,,2013-03-21 18:52:00,
2013-03-21 15:02:00,35.0,5.0,-100.00,North,-999,-999.0,-999.0,28,0.00,,,0.00,245.000000,,2013-03-21 19:02:00,
2013-03-21 15:10:00,39.0,8.0,-100.00,North,-999,-999.0,-999.0,27,0.00,,,0.00,244.000000,,2013-03-21 19:10:00,
2013-03-21 15:43:00,39.0,8.0,-100.00,North,-999,-999.0,-999.0,27,0.00,,,0.00,244.000000,,2013-03-21 19:43:00,
2013-03-21 15:53:00,39.0,8.0,-100.00,North,-999,-999.0,-999.0,27,0.00,,,0.00,244.000000,,2013-03-21 19:53:00,
2013-03-21 16:02:00,39.0,8.0,-100.00,North,-999,-999.0,-999.0,27,0.00,,,0.00,244.000000,,2013-03-21 20:02:00,
2013-03-21 16:10:00,35.0,6.0,-100.00,North,-999,-999.0,-999.0,29,0.00,,,0.00,96.000000,,2013-03-21 20:10:00,
2013-03-21 16:43:00,35.0,6.0,-100.00,North,-999,-999.0,-999.0,29,0.00,,,0.00,96.000000,,2013-03-21 20:43:00,
2013-03-21 16:53:00,35.0,6.0,-100.00,North,-999,-999.0,-999.0,29,0.00,,,0.00,96.000000,,2013-03-21 20:53:00,
2013-03-21 17:03:00,35.0,6.0,-100.00,North,-999,-999.0,-999.0,29,0.00,,,0.00,96.000000,,2013-03-21 21:03:00,
2013-03-21 17:10:00,35.0,6.0,-100.00,North,-999,-999.0,-999.0,29,0.00,,,0.00,54.000000,,2013-03-21 21:10:00,
2013-03-21 17:43:00,35.0,6.0,-100.00,North,-999,-999.0,-999.0,29,0.00,,,0.00,54.000000,,2013-03-21 21:43:00,
2013-03-21 17:53:00,35.0,6.0,-100.00,North,-999,-999.0,-999.0,29,0.00,,,0.00,54.000000,,2013-03-21 21:53:00,
2013-03-21 18:03:00,35.0,6.0,-100.00,North,-999,-999.0,-999.0,29,0.00,,,0.00,54.000000,,2013-03-21 22:03:00,
2013-03-21 18:10:00,34.0,6.0,-100.00,North,-999,-999.0,-999.0,30,0.00,,,0.00,0.000000,,2013-03-21 22:10:00,
2013-03-21 18:34:00,34.0,6.0,-100.00,North,-999,-999.0,-999.0,30,0.00,,,0.00,0.000000,,2013-03-21 22:34:00,
2013-03-21 18:43:00,34.0,6.0,-100.00,North,-999,-999.0,-999.0,30,0.00,,,0.00,0.000000,,2013-03-21 22:43:00,
2013-03-21 18:53:00,34.0,6.0,-100.00,North,-999,-999.0,-999.0,30,0.00,,,0.00,0.000000,,2013-03-21 22:53:00,
2013-03-21 19:02:00,34.0,6.0,-100.00,North,-999,-999.0,-999.0,30,0.00,,,0.00,0.000000,,2013-03-21 23:02:00,
2013-03-21 19:10:00,31.0,7.0,-100.00,North,-999,-999.0,-999.0,36,0.00,,,0.00,0.000000,,2013-03-21 23:10:00,
2013-03-21 19:33:00,31.0,7.0,-100.00,North,-999,-999.0,-999.0,36,0.00,,,0.00,0.000000,,2013-03-21 23:33:00,
2013-03-21 19:43:00,31.0,7.0,-100.00,North,-999,-999.0,-999.0,36,0.00,,,0.00,0.000000,,2013-03-21 23:43:00,
2013-03-21 19:53:00,31.0,7.0,-100.00,North,-999,-999.0,-999.0,36,0.00,,,0.00,0.000000,,2013-03-21 23:53:00,
2013-03-21 20:03:00,31.0,7.0,-100.00,North,-999,-999.0,-999.0,36,0.00,,,0.00,0.000000,,2013-03-22 00:03:00,
2013-03-21 21:10:00,26.0,9.0,-100.00,North,-999,-999.0,-999.0,48,-99.99,,,0.00,0.000000,,2013-03-22 01:10:00,
2013-03-21 21:43:00,26.0,9.0,-100.00,North,-999,-999.0,-999.0,48,-99.99,,,0.00,0.000000,,2013-03-22 01:43:00,
2013-03-21 21:53:00,26.0,9.0,-100.00,North,-999,-999.0,-999.0,48,-99.99,,,0.00,0.000000,,2013-03-22 01:53:00,
2013-03-21 22:03:00,26.0,9.0,-100.00,North,-999,-999.0,-999.0,48,-99.99,,,0.00,0.000000,,2013-03-22 02:03:00,
2013-03-21 22:10:00,25.0,9.0,-100.00,North,-999,-999.0,-999.0,50,0.00,,,0.00,0.000000,,2013-03-22 02:10:00,
2013-03-21 22:43:00,25.0,9.0,-100.00,North,-999,-999.0,-999.0,50,0.00,,,0.00,0.000000,,2013-03-22 02:43:00,
2013-03-21 22:53:00,25.0,9.0,-100.00,North,-999,-999.0,-999.0,50,0.00,,,0.00,0.000000,,2013-03-22 02:53:00,
2013-03-21 23:02:00,25.0,9.0,-100.00,North,-999,-999.0,-999.0,50,0.00,,,0.00,0.000000,,2013-03-22 03:02:00,
2013-03-21 23:10:00,23.0,9.0,-100.00,North,-999,-999.0,-999.0,55,0.00,,,0.00,0.000000,,2013-03-22 03:10:00,
2013-03-21 23:33:00,23.0,9.0,-100.00,North,-999,-999.0,-999.0,55,0.00,,,0.00,0.000000,,2013-03-22 03:33:00,
2013-03-21 23:43:00,23.0,9.0,-100.00,North,-999,-999.0,-999.0,55,0.00,,,0.00,0.000000,,2013-03-22 03:43:00,
2013-03-21 23:53:00,23.0,9.0,-100.00,North,-999,-999.0,-999.0,55,0.00,,,0.00,0.000000,,2013-03-22 03:53:00,